createdAt,value
2024-01-24T00:01:35.564Z,100712.44
2024-01-24T00:04:02.648Z,100714.06
2024-01-24T00:06:29.860Z,100690.03
2024-01-24T00:08:56.941Z,100697.59
2024-01-24T00:11:23.907Z,100681.03
2024-01-24T00:13:54.417Z,100701.22
2024-01-24T00:16:21.443Z,100680.75
2024-01-24T00:18:48.497Z,100692.66
2024-01-24T00:21:15.633Z,100701.34
2024-01-24T00:23:42.747Z,100688.00
2024-01-24T00:26:10.163Z,100678.47
2024-01-24T00:28:37.208Z,100663.53
2024-01-24T00:31:04.313Z,100645.91
2024-01-24T00:33:31.323Z,100643.88
2024-01-24T00:35:58.592Z,100672.31
2024-01-24T00:38:25.864Z,100686.47
2024-01-24T00:40:52.819Z,100679.34
2024-01-24T00:43:19.866Z,100681.31
2024-01-24T00:45:47.023Z,100669.94
2024-01-24T00:48:16.958Z,100660.06
2024-01-24T00:50:44.146Z,100672.97
2024-01-24T00:53:17.208Z,100651.63
2024-01-24T00:55:47.169Z,100663.41
2024-01-24T00:58:14.712Z,100648.03
2024-01-24T01:00:41.756Z,100640.19
2024-01-24T01:03:10.142Z,100646.50
2024-01-24T01:05:37.893Z,100649.34
2024-01-24T01:08:06.662Z,100638.31
2024-01-24T01:10:33.798Z,100642.72
2024-01-24T01:13:00.823Z,100649.44
2024-01-24T01:15:27.889Z,100654.97
2024-01-24T01:17:55.151Z,100657.06
2024-01-24T01:20:22.381Z,100637.03
2024-01-24T01:22:49.676Z,100677.66
2024-01-24T01:25:16.936Z,100659.59
2024-01-24T01:27:44.234Z,100686.91
2024-01-24T01:30:11.660Z,100673.13
2024-01-24T01:32:40.478Z,100675.63
2024-01-24T01:35:08.601Z,100671.41
2024-01-24T01:37:35.648Z,100663.97
2024-01-24T01:40:02.725Z,100676.72
2024-01-24T01:42:30.072Z,100692.97
2024-01-24T01:44:56.999Z,100660.72
2024-01-24T01:47:24.639Z,100674.53
2024-01-24T01:49:52.571Z,100665.78
2024-01-24T01:52:21.235Z,100667.78
2024-01-24T01:54:50.081Z,100649.97
2024-01-24T01:57:17.185Z,100658.69
2024-01-24T01:59:44.653Z,100660.72
2024-01-24T02:02:12.607Z,100646.13
2024-01-24T02:04:40.096Z,100663.03
2024-01-24T02:07:07.246Z,100655.50
2024-01-24T02:09:35.669Z,100648.41
2024-01-24T02:12:02.746Z,100634.28
2024-01-24T02:14:29.967Z,100636.16
2024-01-24T02:16:57.096Z,100657.09
2024-01-24T02:19:24.296Z,100646.38
2024-01-24T02:21:51.431Z,100641.59
2024-01-24T02:24:18.673Z,100612.38
2024-01-24T02:26:45.709Z,100641.88
2024-01-24T02:29:15.487Z,100647.41
2024-01-24T02:31:42.464Z,100667.97
2024-01-24T02:34:09.894Z,100646.56
2024-01-24T02:36:37.007Z,100648.38
2024-01-24T02:39:04.620Z,100626.13
2024-01-24T02:41:34.502Z,100645.31
2024-01-24T02:44:01.522Z,100634.94
2024-01-24T02:46:28.541Z,100638.38
2024-01-24T02:48:55.893Z,100653.00
2024-01-24T02:51:27.037Z,100642.94
2024-01-24T02:53:54.340Z,100665.72
2024-01-24T02:56:21.445Z,100683.78
2024-01-24T02:58:48.805Z,100658.47
2024-01-24T03:01:17.576Z,100664.81
2024-01-24T03:03:45.430Z,100675.03
2024-01-24T03:06:12.751Z,100656.88
2024-01-24T03:08:50.435Z,100665.78
2024-01-24T03:11:17.985Z,100673.00
2024-01-24T03:13:45.431Z,100675.69
2024-01-24T03:16:12.705Z,100677.19
2024-01-24T03:18:40.634Z,100669.34
2024-01-24T03:21:10.319Z,100666.97
2024-01-24T03:23:40.769Z,100673.84
2024-01-24T03:26:08.566Z,100693.50
2024-01-24T03:28:35.793Z,100687.25
2024-01-24T03:31:03.898Z,100691.50
2024-01-24T03:33:31.099Z,100715.16
2024-01-24T03:35:58.117Z,100696.06
2024-01-24T03:38:25.496Z,100692.66
2024-01-24T03:40:52.491Z,100695.03
2024-01-24T03:43:19.470Z,100688.44
2024-01-24T03:45:46.671Z,100685.75
2024-01-24T03:48:13.905Z,100691.63
2024-01-24T03:50:41.005Z,100700.19
2024-01-24T03:53:08.213Z,100676.19
2024-01-24T03:55:35.435Z,100710.06
2024-01-24T03:58:02.430Z,100702.16
2024-01-24T04:00:29.612Z,100716.44
2024-01-24T04:02:56.763Z,100725.81
2024-01-24T04:05:23.829Z,100702.78
2024-01-24T04:07:51.099Z,100722.59
2024-01-24T04:10:18.308Z,100711.56
2024-01-24T04:12:45.326Z,100728.66
2024-01-24T04:15:12.642Z,100719.56
2024-01-24T04:17:40.764Z,100718.28
2024-01-24T04:20:08.870Z,100743.72
2024-01-24T04:22:36.417Z,100744.75
2024-01-24T04:25:03.531Z,100729.72
2024-01-24T04:27:30.617Z,100720.06
2024-01-24T04:29:58.402Z,100723.09
2024-01-24T04:32:25.666Z,100716.63
2024-01-24T04:34:55.065Z,100754.00
2024-01-24T04:37:23.144Z,100735.56
2024-01-24T04:39:50.120Z,100742.97
2024-01-24T04:42:17.533Z,100731.59
2024-01-24T04:44:45.097Z,100745.38
2024-01-24T04:47:14.905Z,100758.38
2024-01-24T04:49:45.336Z,100768.75
2024-01-24T04:52:15.703Z,100796.75
2024-01-24T04:54:43.058Z,100766.00
2024-01-24T04:57:10.472Z,100771.88
2024-01-24T04:59:46.270Z,100757.81
2024-01-24T05:02:21.485Z,100768.91
2024-01-24T05:04:49.451Z,100784.31
2024-01-24T05:07:16.805Z,100774.00
2024-01-24T05:09:44.021Z,100768.50
2024-01-24T05:12:11.412Z,100763.31
2024-01-24T05:14:38.782Z,100793.00
2024-01-24T05:17:05.849Z,100806.44
2024-01-24T05:19:34.041Z,100798.88
2024-01-24T05:22:01.529Z,100781.09
2024-01-24T05:24:29.111Z,100793.53
2024-01-24T05:26:56.651Z,100807.38
2024-01-24T05:29:23.669Z,100816.31
2024-01-24T05:31:54.263Z,100816.91
2024-01-24T05:34:21.899Z,100817.88
2024-01-24T05:36:49.341Z,100838.31
2024-01-24T05:39:20.082Z,100838.06
2024-01-24T05:41:47.345Z,100824.28
2024-01-24T05:44:44.675Z,100844.69
2024-01-24T05:47:02.498Z,100846.69
2024-01-24T05:49:36.990Z,100856.53
2024-01-24T05:52:09.826Z,100833.69
2024-01-24T05:54:42.742Z,100867.53
2024-01-24T05:57:13.351Z,100866.31
2024-01-24T05:59:40.649Z,100874.38
2024-01-24T06:02:07.680Z,100879.44
2024-01-24T06:04:35.159Z,100865.88
2024-01-24T06:07:02.874Z,100884.34
2024-01-24T06:09:42.518Z,100881.84
2024-01-24T06:12:24.185Z,100893.22
2024-01-24T06:14:56.576Z,100871.44
2024-01-24T06:17:24.161Z,100882.63
2024-01-24T06:19:52.940Z,100883.81
2024-01-24T06:22:20.039Z,100891.88
2024-01-24T06:24:47.419Z,100905.78
2024-01-24T06:27:15.019Z,100903.28
2024-01-24T06:30:16.524Z,100900.88
2024-01-24T06:32:29.380Z,100902.91
2024-01-24T06:34:56.391Z,100907.69
2024-01-24T06:37:23.353Z,100916.38
2024-01-24T06:39:52.520Z,100915.56
2024-01-24T06:42:19.784Z,100920.97
2024-01-24T06:44:47.060Z,100924.19
2024-01-24T06:47:14.292Z,100927.97
2024-01-24T06:49:42.331Z,100926.25
2024-01-24T06:52:09.941Z,100937.25
2024-01-24T06:54:37.219Z,100946.97
2024-01-24T06:57:04.753Z,100959.47
2024-01-24T06:59:32.990Z,100948.00
2024-01-24T07:02:01.513Z,100950.38
2024-01-24T07:04:28.895Z,100950.38
2024-01-24T07:06:59.058Z,100950.50
2024-01-24T07:09:26.334Z,100957.50
2024-01-24T07:11:53.563Z,100957.50
2024-01-24T07:14:21.098Z,100956.38
2024-01-24T07:16:48.612Z,100954.44
2024-01-24T07:19:17.042Z,100959.69
2024-01-24T07:21:44.354Z,100984.47
2024-01-24T07:24:11.497Z,100971.97
2024-01-24T07:26:38.630Z,100987.56
2024-01-24T07:29:05.686Z,100989.75
2024-01-24T07:31:32.806Z,100984.91
2024-01-24T07:34:00.368Z,100991.00
2024-01-24T07:36:28.430Z,100986.53
2024-01-24T07:38:55.532Z,100985.28
2024-01-24T07:41:23.331Z,100995.13
2024-01-24T07:43:50.563Z,101015.88
2024-01-24T07:46:17.703Z,101033.31
2024-01-24T07:48:44.997Z,101031.25
2024-01-24T07:51:12.602Z,101028.38
2024-01-24T07:53:42.085Z,101026.66
2024-01-24T07:56:15.909Z,101011.88
2024-01-24T07:58:51.394Z,101022.75
2024-01-24T08:01:18.692Z,101058.19
2024-01-24T08:03:49.695Z,101046.38
2024-01-24T08:06:18.645Z,101072.50
2024-01-24T08:08:45.887Z,101070.69
2024-01-24T08:11:13.138Z,101067.25
2024-01-24T08:13:40.687Z,101057.03
2024-01-24T08:16:09.232Z,101065.38
2024-01-24T08:18:36.767Z,101073.19
2024-01-24T08:21:06.971Z,101070.91
2024-01-24T08:23:42.907Z,101071.38
2024-01-24T08:26:16.667Z,101084.19
2024-01-24T08:28:44.473Z,101086.81
2024-01-24T08:31:12.908Z,101092.34
2024-01-24T08:33:40.022Z,101107.22
2024-01-24T08:36:07.449Z,101122.25
2024-01-24T08:38:34.337Z,101124.78
2024-01-24T08:41:01.548Z,101118.22
2024-01-24T08:43:28.573Z,101104.16
2024-01-24T08:45:55.589Z,101104.59
2024-01-24T08:48:23.212Z,101124.34
2024-01-24T08:50:50.334Z,101115.41
2024-01-24T08:53:17.566Z,101128.78
2024-01-24T08:55:44.959Z,101137.16
2024-01-24T08:58:13.207Z,101127.78
2024-01-24T09:00:41.301Z,101120.31
2024-01-24T09:03:08.566Z,101140.38
2024-01-24T09:05:36.200Z,101132.25
2024-01-24T09:08:03.359Z,101133.72
2024-01-24T09:10:30.766Z,101141.53
2024-01-24T09:12:58.284Z,101158.25
2024-01-24T09:15:25.546Z,101194.53
2024-01-24T09:17:52.834Z,101171.47
2024-01-24T09:20:20.196Z,101174.78
2024-01-24T09:22:48.064Z,101189.59
2024-01-24T09:25:15.849Z,101190.41
2024-01-24T09:27:43.363Z,101199.09
2024-01-24T09:30:11.540Z,101218.38
2024-01-24T09:32:38.853Z,101223.06
2024-01-24T09:35:06.844Z,101235.59
2024-01-24T09:37:34.977Z,101229.63
2024-01-24T09:40:02.193Z,101241.31
2024-01-24T09:42:31.413Z,101250.16
2024-01-24T09:44:59.780Z,101254.84
2024-01-24T09:47:27.729Z,101262.75
2024-01-24T09:49:55.182Z,101251.06
2024-01-24T09:52:26.259Z,101249.13
2024-01-24T09:55:01.979Z,101261.38
2024-01-24T09:57:29.270Z,101260.63
2024-01-24T09:59:56.758Z,101271.16
2024-01-24T10:02:27.747Z,101290.66
2024-01-24T10:04:55.814Z,101294.22
2024-01-24T10:07:22.975Z,101262.44
2024-01-24T10:10:06.468Z,101301.44
2024-01-24T10:12:33.701Z,101283.44
2024-01-24T10:15:02.244Z,101309.47
2024-01-24T10:17:30.082Z,101323.72
2024-01-24T10:19:57.828Z,101304.91
2024-01-24T10:22:25.803Z,101309.97
2024-01-24T10:24:56.320Z,101308.22
2024-01-24T10:27:24.645Z,101314.66
2024-01-24T10:29:54.204Z,101313.28
2024-01-24T10:32:21.973Z,101328.69
2024-01-24T10:34:50.965Z,101334.63
2024-01-24T10:37:19.986Z,101343.91
2024-01-24T10:39:49.424Z,101363.41
2024-01-24T10:42:21.928Z,101365.50
2024-01-24T10:44:51.312Z,101371.72
2024-01-24T10:47:19.008Z,101378.84
2024-01-24T10:49:49.608Z,101367.94
2024-01-24T10:52:18.123Z,101384.13
2024-01-24T10:54:48.946Z,101393.63
2024-01-24T10:57:19.885Z,101390.56
2024-01-24T10:59:50.962Z,101388.38
2024-01-24T11:02:19.781Z,101390.31
2024-01-24T11:04:48.623Z,101394.22
2024-01-24T11:07:21.095Z,101411.38
2024-01-24T11:09:55.129Z,101405.53
2024-01-24T11:12:22.894Z,101403.22
2024-01-24T11:14:50.737Z,101428.16
2024-01-24T11:17:18.040Z,101439.41
2024-01-24T11:19:45.334Z,101444.13
2024-01-24T11:22:19.878Z,101426.19
2024-01-24T11:24:54.605Z,101435.38
2024-01-24T11:27:37.568Z,101427.34
2024-01-24T11:30:19.890Z,101425.53
2024-01-24T11:32:48.529Z,101459.28
2024-01-24T11:35:42.671Z,101486.03
2024-01-24T11:38:26.054Z,101484.53
2024-01-24T11:40:59.148Z,101493.28
2024-01-24T11:43:36.797Z,101491.91
2024-01-24T11:46:10.542Z,101493.50
2024-01-24T11:48:40.021Z,101534.13
2024-01-24T11:51:11.255Z,101529.91
2024-01-24T11:53:39.017Z,101504.44
2024-01-24T11:56:08.851Z,101514.41
2024-01-24T11:58:36.786Z,101546.47
2024-01-24T12:01:05.757Z,101499.81
2024-01-24T12:03:33.591Z,101535.31
2024-01-24T12:06:01.711Z,101542.41
2024-01-24T12:08:29.557Z,101555.06
2024-01-24T12:10:57.959Z,101549.53
2024-01-24T12:13:29.402Z,101566.88
2024-01-24T12:15:58.503Z,101571.13
2024-01-24T12:18:26.677Z,101559.75
2024-01-24T12:20:57.126Z,101573.22
2024-01-24T12:23:27.851Z,101579.06
2024-01-24T12:25:55.258Z,101576.28
2024-01-24T12:28:24.766Z,101610.41
2024-01-24T12:30:54.769Z,101602.44
2024-01-24T12:33:22.744Z,101623.81
2024-01-24T12:35:51.498Z,101606.97
2024-01-24T12:38:19.317Z,101605.69
2024-01-24T12:40:54.194Z,101630.97
2024-01-24T12:43:24.280Z,101647.34
2024-01-24T12:45:53.604Z,101654.94
2024-01-24T12:48:23.628Z,101653.47
2024-01-24T12:50:52.553Z,101660.81
2024-01-24T12:53:40.129Z,101652.72
2024-01-24T12:56:07.720Z,101682.88
2024-01-24T12:58:35.852Z,101667.34
2024-01-24T13:01:03.659Z,101692.47
2024-01-24T13:03:31.138Z,101671.09
2024-01-24T13:05:58.961Z,101695.44
2024-01-24T13:08:27.106Z,101697.38
2024-01-24T13:10:56.191Z,101698.66
2024-01-24T13:13:23.357Z,101715.06
2024-01-24T13:15:54.838Z,101720.63
2024-01-24T13:18:22.401Z,101721.63
2024-01-24T13:20:49.594Z,101740.91
2024-01-24T13:23:16.825Z,101747.53
2024-01-24T13:25:43.890Z,101729.53
2024-01-24T13:28:12.916Z,101724.19
2024-01-24T13:30:41.476Z,101719.47
2024-01-24T13:33:11.254Z,101734.72
2024-01-24T13:35:38.627Z,101739.63
2024-01-24T13:38:06.574Z,101742.44
2024-01-24T13:40:33.694Z,101750.38
2024-01-24T13:43:00.820Z,101770.19
2024-01-24T13:45:28.244Z,101761.44
2024-01-24T13:47:55.700Z,101772.66
2024-01-24T13:50:22.882Z,101780.91
2024-01-24T13:52:50.072Z,101789.16
2024-01-24T13:55:18.693Z,101795.16
2024-01-24T13:57:45.928Z,101808.56
2024-01-24T14:00:15.492Z,101801.94
2024-01-24T14:02:43.540Z,101816.03
2024-01-24T14:05:12.032Z,101834.50
2024-01-24T14:07:44.417Z,101824.47
2024-01-24T14:10:12.921Z,101829.81
2024-01-24T14:12:40.811Z,101841.78
2024-01-24T14:15:15.621Z,101837.28
2024-01-24T14:17:51.385Z,101854.13
2024-01-24T14:20:18.865Z,101857.69
2024-01-24T14:22:46.023Z,101868.88
2024-01-24T14:25:13.513Z,101851.03
2024-01-24T14:27:41.852Z,101859.28
2024-01-24T14:30:09.163Z,101875.19
2024-01-24T14:32:40.040Z,101868.72
2024-01-24T14:35:08.253Z,101883.59
2024-01-24T14:37:36.287Z,101881.03
2024-01-24T14:40:03.843Z,101888.78
2024-01-24T14:42:32.254Z,101908.69
2024-01-24T14:45:00.362Z,101900.28
2024-01-24T14:47:27.979Z,101900.78
2024-01-24T14:49:55.158Z,101904.97
2024-01-24T14:52:22.424Z,101913.06
2024-01-24T14:54:49.501Z,101922.44
2024-01-24T14:57:16.593Z,101923.44
2024-01-24T14:59:44.046Z,101917.59
2024-01-24T15:02:11.211Z,101931.97
2024-01-24T15:04:38.268Z,101928.59
2024-01-24T15:07:05.820Z,101925.03
2024-01-24T15:09:34.713Z,101929.53
2024-01-24T15:12:03.325Z,101914.50
2024-01-24T15:14:30.492Z,101936.00
2024-01-24T15:16:58.480Z,101939.25
2024-01-24T15:19:25.824Z,101952.81
2024-01-24T15:21:53.768Z,101959.94
2024-01-24T15:24:21.096Z,101962.03
2024-01-24T15:26:48.303Z,101976.09
2024-01-24T15:29:16.365Z,101972.03
2024-01-24T15:31:43.458Z,101976.72
2024-01-24T15:34:14.653Z,101971.53
2024-01-24T15:36:42.985Z,101978.31
2024-01-24T15:39:15.282Z,101991.22
2024-01-24T15:41:42.686Z,101999.34
2024-01-24T15:44:09.906Z,102015.81
2024-01-24T15:46:37.267Z,102001.25
2024-01-24T15:49:04.773Z,102016.16
2024-01-24T15:51:32.554Z,102042.50
2024-01-24T15:53:59.782Z,102038.34
2024-01-24T15:56:27.239Z,102038.63
2024-01-24T15:58:57.468Z,102042.03
2024-01-24T16:01:25.720Z,102046.84
2024-01-24T16:03:54.750Z,102054.75
2024-01-24T16:06:23.774Z,102057.22
2024-01-24T16:08:51.846Z,102054.59
2024-01-24T16:11:19.584Z,102058.03
2024-01-24T16:13:47.023Z,102066.09
2024-01-24T16:16:16.594Z,102067.53
2024-01-24T16:18:44.555Z,102078.00
2024-01-24T16:21:11.970Z,102079.28
2024-01-24T16:23:38.989Z,102072.66
2024-01-24T16:26:06.382Z,102069.41
2024-01-24T16:28:34.120Z,102077.47
2024-01-24T16:31:01.239Z,102094.28
2024-01-24T16:33:28.561Z,102086.53
2024-01-24T16:35:56.034Z,102099.78
2024-01-24T16:38:23.156Z,102119.72
2024-01-24T16:40:51.896Z,102126.19
2024-01-24T16:43:19.180Z,102129.41
2024-01-24T16:45:46.278Z,102139.88
2024-01-24T16:48:13.667Z,102136.19
2024-01-24T16:50:41.374Z,102145.00
2024-01-24T16:53:10.491Z,102135.84
2024-01-24T16:55:37.966Z,102129.53
2024-01-24T16:58:05.244Z,102147.00
2024-01-24T17:00:33.806Z,102153.53
2024-01-24T17:03:00.982Z,102151.63
2024-01-24T17:05:28.130Z,102140.09
2024-01-24T17:07:55.664Z,102144.78
2024-01-24T17:10:22.706Z,102148.97
2024-01-24T17:12:52.605Z,102153.25
2024-01-24T17:15:19.944Z,102171.88
2024-01-24T17:17:47.063Z,102169.13
2024-01-24T17:20:14.349Z,102173.47
2024-01-24T17:22:41.632Z,102179.34
2024-01-24T17:25:11.167Z,102177.34
2024-01-24T17:27:38.474Z,102182.84
2024-01-24T17:30:06.148Z,102177.84
2024-01-24T17:32:33.230Z,102174.00
2024-01-24T17:35:00.445Z,102174.94
2024-01-24T17:37:27.708Z,102194.16
2024-01-24T17:39:55.175Z,102201.19
2024-01-24T17:42:22.652Z,102219.13
2024-01-24T17:44:49.826Z,102211.97
2024-01-24T17:47:16.917Z,102207.31
2024-01-24T17:49:44.362Z,102203.44
2024-01-24T17:52:11.704Z,102207.50
2024-01-24T17:54:38.863Z,102219.31
2024-01-24T17:57:07.910Z,102221.25
2024-01-24T17:59:35.145Z,102227.34
2024-01-24T18:02:02.355Z,102233.41
2024-01-24T18:04:29.494Z,102224.38
2024-01-24T18:06:57.545Z,102226.31
2024-01-24T18:09:25.418Z,102239.44
2024-01-24T18:11:52.788Z,102238.28
2024-01-24T18:14:19.901Z,102235.53
2024-01-24T18:16:47.072Z,102243.00
2024-01-24T18:19:14.095Z,102241.66
2024-01-24T18:21:41.648Z,102222.25
2024-01-24T18:24:09.697Z,102246.03
2024-01-24T18:26:37.508Z,102241.03
2024-01-24T18:29:04.760Z,102250.44
2024-01-24T18:31:31.782Z,102247.34
2024-01-24T18:33:58.763Z,102261.63
2024-01-24T18:36:25.997Z,102260.47
2024-01-24T18:38:53.093Z,102261.63
2024-01-24T18:41:20.264Z,102273.22
2024-01-24T18:43:49.939Z,102277.56
2024-01-24T18:46:19.601Z,102286.53
2024-01-24T18:48:47.001Z,102284.91
2024-01-24T18:51:17.826Z,102290.09
2024-01-24T18:53:45.781Z,102286.13
2024-01-24T18:56:39.994Z,102284.09
2024-01-24T18:59:40.029Z,102284.22
2024-01-24T19:02:08.444Z,102282.88
2024-01-24T19:04:36.507Z,102291.84
2024-01-24T19:07:04.822Z,102296.19
2024-01-24T19:09:35.498Z,102296.00
2024-01-24T19:12:46.483Z,102294.38
2024-01-24T19:15:14.697Z,102297.53
2024-01-24T19:17:43.028Z,102316.97
2024-01-24T19:21:22.540Z,102298.44
2024-01-24T19:23:50.002Z,102308.94
2024-01-24T19:26:17.981Z,102304.97
2024-01-24T19:28:47.464Z,102312.06
2024-01-24T19:35:04.417Z,102308.41
2024-01-24T19:37:34.603Z,102304.75
2024-01-24T19:40:06.522Z,102335.81
2024-01-24T19:42:34.964Z,102311.88
2024-01-24T19:45:20.896Z,102333.69
2024-01-24T19:48:11.674Z,102337.31
2024-01-24T19:58:56.610Z,102334.38
2024-01-24T20:01:25.831Z,102331.75
2024-01-24T20:03:55.415Z,102333.88
2024-01-24T20:06:24.729Z,102326.75
2024-01-24T20:08:53.330Z,102319.94
2024-01-24T20:11:21.627Z,102329.19
2024-01-24T20:13:49.599Z,102329.69
2024-01-24T20:16:16.976Z,102321.44
2024-01-24T20:18:43.976Z,102333.25
2024-01-24T20:21:11.100Z,102345.66
2024-01-24T20:23:38.207Z,102342.84
2024-01-24T20:26:06.738Z,102348.94
2024-01-24T20:28:34.622Z,102351.09
2024-01-24T20:31:01.931Z,102356.28
2024-01-24T20:33:29.058Z,102359.84
2024-01-24T20:35:59.326Z,102350.16
2024-01-24T20:38:27.719Z,102355.66
2024-01-24T20:40:54.741Z,102352.50
2024-01-24T20:43:21.865Z,102346.88
2024-01-24T20:45:50.926Z,102356.97
2024-01-24T20:48:22.276Z,102349.22
2024-01-24T20:50:49.575Z,102357.72
2024-01-24T20:53:20.043Z,102363.09
2024-01-24T20:55:47.124Z,102363.28
2024-01-24T20:58:14.737Z,102378.16
2024-01-24T21:00:41.863Z,102373.66
2024-01-24T21:03:10.709Z,102366.66
2024-01-24T21:05:37.951Z,102362.38
2024-01-24T21:08:05.478Z,102366.03
2024-01-24T21:10:32.922Z,102374.38
2024-01-24T21:13:00.075Z,102369.16
2024-01-24T21:15:27.295Z,102376.91
2024-01-24T21:17:55.085Z,102375.06
2024-01-24T21:20:22.689Z,102375.06
2024-01-24T21:22:50.347Z,102377.81
2024-01-24T21:25:17.880Z,102376.47
2024-01-24T21:27:45.137Z,102379.22
2024-01-24T21:30:12.905Z,102378.94
2024-01-24T21:32:40.451Z,102374.56
2024-01-24T21:35:08.075Z,102383.50
2024-01-24T21:37:35.121Z,102378.22
2024-01-24T21:40:02.301Z,102391.84
2024-01-24T21:42:44.297Z,102406.94
2024-01-24T21:45:23.101Z,102409.97
2024-01-24T21:47:50.375Z,102418.22
2024-01-24T21:50:17.447Z,102406.31
2024-01-24T21:52:45.125Z,102410.91
2024-01-24T21:55:12.110Z,102416.19
2024-01-24T21:57:39.193Z,102420.34
2024-01-24T22:00:07.709Z,102415.69
2024-01-24T22:02:34.702Z,102417.94
2024-01-24T22:05:01.748Z,102419.63
2024-01-24T22:07:29.077Z,102425.63
2024-01-24T22:09:56.129Z,102419.53
2024-01-24T22:12:23.053Z,102432.44
2024-01-24T22:14:51.313Z,102431.34
2024-01-24T22:17:19.222Z,102448.03
2024-01-24T22:19:46.141Z,102450.56
2024-01-24T22:22:13.153Z,102445.91
2024-01-24T22:24:40.555Z,102447.81
2024-01-24T22:27:07.454Z,102447.81
2024-01-24T22:29:34.914Z,102447.81
2024-01-24T22:32:04.024Z,102459.63
2024-01-24T22:34:31.141Z,102448.66
2024-01-24T22:37:00.663Z,102464.03
2024-01-24T22:39:31.327Z,102454.44
2024-01-24T22:41:58.590Z,102466.56
2024-01-24T22:46:52.983Z,102473.59
2024-01-24T22:49:19.977Z,102464.53
2024-01-24T22:51:50.066Z,102464.81
2024-01-24T22:54:18.917Z,102461.88
2024-01-24T22:56:46.210Z,102463.00
2024-01-24T22:59:13.933Z,102464.91
2024-01-24T23:01:43.121Z,102474.78
2024-01-24T23:04:11.096Z,102480.91
2024-01-24T23:06:38.514Z,102490.25
2024-01-24T23:09:07.530Z,102483.94
2024-01-24T23:11:34.918Z,102480.97
2024-01-24T23:14:02.580Z,102483.53
2024-01-24T23:16:37.077Z,102495.41
2024-01-24T23:19:09.873Z,102496.00
2024-01-24T23:21:42.648Z,102501.50
2024-01-24T23:24:16.505Z,102502.69
2024-01-24T23:26:51.261Z,102507.38
2024-01-24T23:29:19.610Z,102498.91
2024-01-24T23:31:47.454Z,102503.91
2024-01-24T23:34:24.034Z,102503.16
2024-01-24T23:37:04.028Z,102500.78
2024-01-24T23:39:31.927Z,102501.75
2024-01-24T23:41:59.493Z,102506.88
2024-01-24T23:44:26.394Z,102501.81
2024-01-24T23:46:53.781Z,102507.94
2024-01-24T23:49:25.741Z,102510.03
2024-01-24T23:51:54.362Z,102504.38
2024-01-24T23:54:21.453Z,102512.66
2024-01-24T23:56:48.463Z,102517.97
2024-01-24T23:59:15.325Z,102512.06
